sensor_id;sensor_type;location;lat;lon;timestamp;P1;P2;P0
75960;PMS7003;64644;48.914;2.254;2022-12-10T00:01:08;69.00;57.25;39.00
75960;PMS7003;64644;48.914;2.254;2022-12-10T00:03:41;72.75;58.25;35.50
75960;PMS7003;64644;48.914;2.254;2022-12-10T00:06:09;72.00;56.25;35.50
75960;PMS7003;64644;48.914;2.254;2022-12-10T00:08:36;75.75;59.50;39.00
75960;PMS7003;64644;48.914;2.254;2022-12-10T00:11:03;68.25;57.00;34.00
75960;PMS7003;64644;48.914;2.254;2022-12-10T00:13:30;66.00;53.00;35.50
75960;PMS7003;64644;48.914;2.254;2022-12-10T00:15:55;66.75;53.50;36.00
75960;PMS7003;64644;48.914;2.254;2022-12-10T00:18:24;72.00;58.50;38.00
75960;PMS7003;64644;48.914;2.254;2022-12-10T00:20:49;66.50;55.50;36.00
75960;PMS7003;64644;48.914;2.254;2022-12-10T00:23:15;68.00;56.00;36.50
75960;PMS7003;64644;48.914;2.254;2022-12-10T00:25:41;59.50;52.00;33.00
75960;PMS7003;64644;48.914;2.254;2022-12-10T00:28:06;70.00;57.25;36.50
75960;PMS7003;64644;48.914;2.254;2022-12-10T00:30:32;64.00;53.00;33.00
75960;PMS7003;64644;48.914;2.254;2022-12-10T00:32:58;59.75;52.75;33.00
75960;PMS7003;64644;48.914;2.254;2022-12-10T00:35:23;69.25;56.50;34.00
75960;PMS7003;64644;48.914;2.254;2022-12-10T00:37:49;70.50;54.25;36.00
75960;PMS7003;64644;48.914;2.254;2022-12-10T00:40:14;67.00;54.50;36.25
75960;PMS7003;64644;48.914;2.254;2022-12-10T00:42:39;65.25;52.50;36.00
75960;PMS7003;64644;48.914;2.254;2022-12-10T00:45:05;65.00;56.25;39.00
75960;PMS7003;64644;48.914;2.254;2022-12-10T00:47:31;64.50;52.00;34.00
75960;PMS7003;64644;48.914;2.254;2022-12-10T00:49:56;61.50;51.75;33.50
75960;PMS7003;64644;48.914;2.254;2022-12-10T00:52:21;68.00;50.75;33.00
75960;PMS7003;64644;48.914;2.254;2022-12-10T00:54:47;64.00;51.00;33.00
75960;PMS7003;64644;48.914;2.254;2022-12-10T00:57:12;61.00;51.75;32.00
75960;PMS7003;64644;48.914;2.254;2022-12-10T00:59:38;60.25;49.50;33.25
75960;PMS7003;64644;48.914;2.254;2022-12-10T01:02:03;58.25;49.50;33.25
75960;PMS7003;64644;48.914;2.254;2022-12-10T01:04:29;55.25;48.00;32.50
75960;PMS7003;64644;48.914;2.254;2022-12-10T01:06:54;49.00;46.00;26.00
75960;PMS7003;64644;48.914;2.254;2022-12-10T01:09:21;55.50;48.00;31.50
75960;PMS7003;64644;48.914;2.254;2022-12-10T01:11:48;56.00;48.75;30.00
75960;PMS7003;64644;48.914;2.254;2022-12-10T01:14:16;54.00;43.75;27.50
75960;PMS7003;64644;48.914;2.254;2022-12-10T01:16:44;48.25;42.25;29.50
75960;PMS7003;64644;48.914;2.254;2022-12-10T01:19:09;53.75;47.00;30.00
75960;PMS7003;64644;48.914;2.254;2022-12-10T01:21:35;51.75;42.00;27.75
75960;PMS7003;64644;48.914;2.254;2022-12-10T01:24:00;45.00;43.00;30.00
75960;PMS7003;64644;48.914;2.254;2022-12-10T01:26:27;50.00;46.50;30.50
75960;PMS7003;64644;48.914;2.254;2022-12-10T01:28:55;44.50;40.75;26.50
75960;PMS7003;64644;48.914;2.254;2022-12-10T01:31:23;54.25;44.00;30.00
75960;PMS7003;64644;48.914;2.254;2022-12-10T01:33:50;54.75;45.00;28.00
75960;PMS7003;64644;48.914;2.254;2022-12-10T01:36:26;43.50;41.25;25.50
75960;PMS7003;64644;48.914;2.254;2022-12-10T01:38:57;57.50;45.25;28.50
75960;PMS7003;64644;48.914;2.254;2022-12-10T01:41:25;44.75;39.25;27.50
75960;PMS7003;64644;48.914;2.254;2022-12-10T01:44:02;50.75;40.25;25.25
75960;PMS7003;64644;48.914;2.254;2022-12-10T01:46:31;50.00;43.50;27.50
75960;PMS7003;64644;48.914;2.254;2022-12-10T01:48:59;56.75;48.50;29.50
75960;PMS7003;64644;48.914;2.254;2022-12-10T01:51:26;44.75;37.75;24.25
75960;PMS7003;64644;48.914;2.254;2022-12-10T01:53:54;45.00;43.50;29.50
75960;PMS7003;64644;48.914;2.254;2022-12-10T01:56:20;45.00;38.50;25.50
75960;PMS7003;64644;48.914;2.254;2022-12-10T01:58:47;51.75;45.50;28.50
75960;PMS7003;64644;48.914;2.254;2022-12-10T02:01:27;44.75;39.00;24.50
75960;PMS7003;64644;48.914;2.254;2022-12-10T02:12:02;43.50;39.75;24.75
75960;PMS7003;64644;48.914;2.254;2022-12-10T02:17:13;50.50;37.00;24.25
75960;PMS7003;64644;48.914;2.254;2022-12-10T02:22:34;42.50;39.50;25.00
75960;PMS7003;64644;48.914;2.254;2022-12-10T02:25:04;47.00;42.25;24.00
75960;PMS7003;64644;48.914;2.254;2022-12-10T02:30:20;48.75;38.50;22.00
75960;PMS7003;64644;48.914;2.254;2022-12-10T02:32:45;41.50;39.75;22.50
75960;PMS7003;64644;48.914;2.254;2022-12-10T02:35:16;42.00;34.50;21.25
75960;PMS7003;64644;48.914;2.254;2022-12-10T02:37:51;41.50;39.50;22.00
75960;PMS7003;64644;48.914;2.254;2022-12-10T02:40:25;36.75;32.50;22.50
75960;PMS7003;64644;48.914;2.254;2022-12-10T02:42:56;41.00;32.50;21.25
75960;PMS7003;64644;48.914;2.254;2022-12-10T02:45:22;40.75;38.25;25.50
75960;PMS7003;64644;48.914;2.254;2022-12-10T02:47:50;45.50;42.25;26.00
75960;PMS7003;64644;48.914;2.254;2022-12-10T02:50:19;41.25;35.75;21.25
75960;PMS7003;64644;48.914;2.254;2022-12-10T02:52:46;46.50;40.00;26.00
75960;PMS7003;64644;48.914;2.254;2022-12-10T02:55:12;42.25;39.50;22.00
75960;PMS7003;64644;48.914;2.254;2022-12-10T03:00:36;43.25;42.00;23.75
75960;PMS7003;64644;48.914;2.254;2022-12-10T03:08:17;37.50;32.25;21.25
75960;PMS7003;64644;48.914;2.254;2022-12-10T03:13:12;35.00;33.33;25.00
75960;PMS7003;64644;48.914;2.254;2022-12-10T03:15:41;38.25;32.50;21.00
75960;PMS7003;64644;48.914;2.254;2022-12-10T03:18:09;46.50;34.25;20.00
75960;PMS7003;64644;48.914;2.254;2022-12-10T03:20:39;37.25;31.25;18.25
75960;PMS7003;64644;48.914;2.254;2022-12-10T03:23:09;36.50;32.50;19.50
75960;PMS7003;64644;48.914;2.254;2022-12-10T03:25:37;40.50;34.50;18.00
75960;PMS7003;64644;48.914;2.254;2022-12-10T03:28:03;38.00;34.50;20.25
75960;PMS7003;64644;48.914;2.254;2022-12-10T03:30:30;37.75;35.00;20.50
75960;PMS7003;64644;48.914;2.254;2022-12-10T03:32:57;34.25;34.00;20.00
75960;PMS7003;64644;48.914;2.254;2022-12-10T03:35:23;47.00;36.00;24.25
75960;PMS7003;64644;48.914;2.254;2022-12-10T03:37:49;35.25;33.75;21.00
75960;PMS7003;64644;48.914;2.254;2022-12-10T03:40:16;50.50;37.50;22.00
75960;PMS7003;64644;48.914;2.254;2022-12-10T03:42:45;33.50;32.75;23.50
75960;PMS7003;64644;48.914;2.254;2022-12-10T03:45:10;44.75;35.25;23.00
75960;PMS7003;64644;48.914;2.254;2022-12-10T03:47:36;38.25;33.50;21.00
75960;PMS7003;64644;48.914;2.254;2022-12-10T03:50:01;41.50;39.75;23.00
75960;PMS7003;64644;48.914;2.254;2022-12-10T03:52:28;41.25;36.50;19.00
75960;PMS7003;64644;48.914;2.254;2022-12-10T03:54:53;39.00;32.00;20.00
75960;PMS7003;64644;48.914;2.254;2022-12-10T03:57:18;37.50;33.50;20.00
75960;PMS7003;64644;48.914;2.254;2022-12-10T03:59:44;43.25;33.50;21.50
75960;PMS7003;64644;48.914;2.254;2022-12-10T04:02:09;32.00;29.75;18.00
75960;PMS7003;64644;48.914;2.254;2022-12-10T04:04:35;35.75;32.25;21.00
75960;PMS7003;64644;48.914;2.254;2022-12-10T04:07:01;33.25;30.75;21.00
75960;PMS7003;64644;48.914;2.254;2022-12-10T04:09:27;34.00;25.75;18.50
75960;PMS7003;64644;48.914;2.254;2022-12-10T04:11:58;42.00;34.50;23.00
75960;PMS7003;64644;48.914;2.254;2022-12-10T04:14:24;35.00;30.50;22.75
75960;PMS7003;64644;48.914;2.254;2022-12-10T04:17:10;43.00;38.00;22.00
75960;PMS7003;64644;48.914;2.254;2022-12-10T04:19:36;38.50;34.50;21.50
75960;PMS7003;64644;48.914;2.254;2022-12-10T04:22:01;31.25;26.50;18.00
75960;PMS7003;64644;48.914;2.254;2022-12-10T04:24:45;27.75;23.50;15.00
75960;PMS7003;64644;48.914;2.254;2022-12-10T04:27:30;36.00;25.00;16.00
75960;PMS7003;64644;48.914;2.254;2022-12-10T04:30:02;30.50;27.25;17.00
75960;PMS7003;64644;48.914;2.254;2022-12-10T04:32:29;31.00;26.50;17.00
75960;PMS7003;64644;48.914;2.254;2022-12-10T04:34:55;31.00;26.75;18.00
75960;PMS7003;64644;48.914;2.254;2022-12-10T04:37:20;33.75;27.50;16.00
75960;PMS7003;64644;48.914;2.254;2022-12-10T04:39:46;20.50;18.50;10.50
75960;PMS7003;64644;48.914;2.254;2022-12-10T04:42:13;21.25;21.25;14.50
75960;PMS7003;64644;48.914;2.254;2022-12-10T04:44:39;25.00;22.50;13.00
75960;PMS7003;64644;48.914;2.254;2022-12-10T04:47:05;29.50;25.25;16.00
75960;PMS7003;64644;48.914;2.254;2022-12-10T04:49:32;25.25;22.75;14.50
75960;PMS7003;64644;48.914;2.254;2022-12-10T04:51:57;25.00;23.25;14.25
75960;PMS7003;64644;48.914;2.254;2022-12-10T04:54:23;26.25;23.75;14.25
75960;PMS7003;64644;48.914;2.254;2022-12-10T04:56:48;31.50;27.00;18.50
75960;PMS7003;64644;48.914;2.254;2022-12-10T04:59:14;38.50;30.25;18.25
75960;PMS7003;64644;48.914;2.254;2022-12-10T05:01:40;30.50;26.25;18.25
75960;PMS7003;64644;48.914;2.254;2022-12-10T05:04:07;32.25;29.50;15.00
75960;PMS7003;64644;48.914;2.254;2022-12-10T05:06:34;28.00;24.00;13.00
75960;PMS7003;64644;48.914;2.254;2022-12-10T05:09:01;30.25;28.00;16.50
75960;PMS7003;64644;48.914;2.254;2022-12-10T05:11:28;28.25;24.50;12.00
75960;PMS7003;64644;48.914;2.254;2022-12-10T05:13:55;36.00;31.00;19.00
75960;PMS7003;64644;48.914;2.254;2022-12-10T05:16:22;27.75;26.50;15.50
75960;PMS7003;64644;48.914;2.254;2022-12-10T05:18:49;28.50;24.50;14.25
75960;PMS7003;64644;48.914;2.254;2022-12-10T05:21:17;32.50;29.50;18.50
75960;PMS7003;64644;48.914;2.254;2022-12-10T05:23:44;25.00;24.00;14.00
75960;PMS7003;64644;48.914;2.254;2022-12-10T05:28:45;26.25;21.50;14.50
75960;PMS7003;64644;48.914;2.254;2022-12-10T05:31:14;30.25;26.00;15.00
75960;PMS7003;64644;48.914;2.254;2022-12-10T05:33:41;33.25;30.25;16.00
75960;PMS7003;64644;48.914;2.254;2022-12-10T05:36:06;24.00;19.75;14.00
75960;PMS7003;64644;48.914;2.254;2022-12-10T05:38:34;30.75;28.50;18.00
75960;PMS7003;64644;48.914;2.254;2022-12-10T05:41:03;31.75;24.75;15.50
75960;PMS7003;64644;48.914;2.254;2022-12-10T05:43:33;27.75;24.00;13.00
75960;PMS7003;64644;48.914;2.254;2022-12-10T05:46:03;21.75;21.00;12.25
75960;PMS7003;64644;48.914;2.254;2022-12-10T05:48:32;26.50;22.75;15.00
75960;PMS7003;64644;48.914;2.254;2022-12-10T05:51:02;25.00;21.50;13.00
75960;PMS7003;64644;48.914;2.254;2022-12-10T05:53:28;23.50;23.00;15.75
75960;PMS7003;64644;48.914;2.254;2022-12-10T05:56:04;22.25;22.25;15.25
75960;PMS7003;64644;48.914;2.254;2022-12-10T05:58:31;21.25;18.00;11.50
75960;PMS7003;64644;48.914;2.254;2022-12-10T06:00:58;33.00;27.00;17.00
75960;PMS7003;64644;48.914;2.254;2022-12-10T06:03:24;24.00;19.00;14.50
75960;PMS7003;64644;48.914;2.254;2022-12-10T06:05:51;22.75;21.00;15.00
75960;PMS7003;64644;48.914;2.254;2022-12-10T06:08:17;19.50;18.25;10.50
75960;PMS7003;64644;48.914;2.254;2022-12-10T06:10:42;27.50;24.00;14.50
75960;PMS7003;64644;48.914;2.254;2022-12-10T06:13:08;16.50;16.50;10.00
75960;PMS7003;64644;48.914;2.254;2022-12-10T06:15:33;21.25;14.25;10.00
75960;PMS7003;64644;48.914;2.254;2022-12-10T06:17:59;13.00;12.00;8.50
75960;PMS7003;64644;48.914;2.254;2022-12-10T06:20:25;18.00;13.50;9.25
75960;PMS7003;64644;48.914;2.254;2022-12-10T06:22:51;20.00;17.50;10.00
75960;PMS7003;64644;48.914;2.254;2022-12-10T06:25:17;9.50;9.50;5.00
75960;PMS7003;64644;48.914;2.254;2022-12-10T06:27:43;12.75;12.75;9.50
75960;PMS7003;64644;48.914;2.254;2022-12-10T06:30:08;20.00;17.50;10.75
75960;PMS7003;64644;48.914;2.254;2022-12-10T06:32:35;19.00;17.50;10.75
75960;PMS7003;64644;48.914;2.254;2022-12-10T06:35:00;20.75;20.00;13.00
75960;PMS7003;64644;48.914;2.254;2022-12-10T06:37:27;22.75;15.25;9.25
75960;PMS7003;64644;48.914;2.254;2022-12-10T06:39:52;20.50;15.50;12.00
75960;PMS7003;64644;48.914;2.254;2022-12-10T06:42:18;21.50;18.00;13.25
75960;PMS7003;64644;48.914;2.254;2022-12-10T06:44:44;26.25;22.50;12.75
75960;PMS7003;64644;48.914;2.254;2022-12-10T06:47:09;25.25;21.75;15.25
75960;PMS7003;64644;48.914;2.254;2022-12-10T06:49:35;22.25;19.75;12.25
75960;PMS7003;64644;48.914;2.254;2022-12-10T06:52:01;23.75;18.00;12.25
75960;PMS7003;64644;48.914;2.254;2022-12-10T06:54:27;24.00;19.25;12.75
75960;PMS7003;64644;48.914;2.254;2022-12-10T06:56:53;24.50;20.00;13.00
75960;PMS7003;64644;48.914;2.254;2022-12-10T06:59:19;13.00;12.50;10.00
75960;PMS7003;64644;48.914;2.254;2022-12-10T07:01:45;15.25;12.25;7.50
75960;PMS7003;64644;48.914;2.254;2022-12-10T07:04:12;17.75;11.50;8.50
75960;PMS7003;64644;48.914;2.254;2022-12-10T07:06:38;15.00;15.00;9.25
75960;PMS7003;64644;48.914;2.254;2022-12-10T07:09:03;12.50;10.00;6.00
75960;PMS7003;64644;48.914;2.254;2022-12-10T07:11:29;17.00;15.00;9.00
75960;PMS7003;64644;48.914;2.254;2022-12-10T07:13:56;11.00;9.50;7.00
75960;PMS7003;64644;48.914;2.254;2022-12-10T07:16:23;11.75;10.25;7.75
75960;PMS7003;64644;48.914;2.254;2022-12-10T07:18:50;14.50;10.00;7.00
75960;PMS7003;64644;48.914;2.254;2022-12-10T07:21:23;14.00;12.75;7.00
75960;PMS7003;64644;48.914;2.254;2022-12-10T07:23:51;12.00;9.50;6.75
75960;PMS7003;64644;48.914;2.254;2022-12-10T07:26:22;13.00;13.00;7.00
75960;PMS7003;64644;48.914;2.254;2022-12-10T07:28:48;17.75;15.00;11.50
75960;PMS7003;64644;48.914;2.254;2022-12-10T07:31:14;20.00;16.50;8.75
75960;PMS7003;64644;48.914;2.254;2022-12-10T07:33:39;10.75;10.25;6.00
75960;PMS7003;64644;48.914;2.254;2022-12-10T07:36:09;30.25;27.00;15.75
75960;PMS7003;64644;48.914;2.254;2022-12-10T07:38:35;19.25;17.50;11.50
75960;PMS7003;64644;48.914;2.254;2022-12-10T07:41:02;10.00;7.00;4.00
75960;PMS7003;64644;48.914;2.254;2022-12-10T07:43:29;18.50;15.75;12.00
75960;PMS7003;64644;48.914;2.254;2022-12-10T07:45:54;15.75;15.00;8.25
75960;PMS7003;64644;48.914;2.254;2022-12-10T07:48:20;15.75;15.75;10.50
75960;PMS7003;64644;48.914;2.254;2022-12-10T07:50:45;12.50;10.00;8.50
75960;PMS7003;64644;48.914;2.254;2022-12-10T07:53:10;21.00;15.00;9.00
75960;PMS7003;64644;48.914;2.254;2022-12-10T07:55:36;20.25;20.25;12.25
75960;PMS7003;64644;48.914;2.254;2022-12-10T07:58:02;17.50;15.75;10.00
75960;PMS7003;64644;48.914;2.254;2022-12-10T08:00:28;17.00;15.25;9.00
75960;PMS7003;64644;48.914;2.254;2022-12-10T08:02:53;13.50;13.50;9.00
75960;PMS7003;64644;48.914;2.254;2022-12-10T08:05:18;21.25;13.50;9.50
75960;PMS7003;64644;48.914;2.254;2022-12-10T08:07:44;14.50;12.00;9.25
75960;PMS7003;64644;48.914;2.254;2022-12-10T08:10:09;24.00;19.25;13.00
75960;PMS7003;64644;48.914;2.254;2022-12-10T08:12:35;24.00;17.50;10.00
75960;PMS7003;64644;48.914;2.254;2022-12-10T08:15:01;31.25;22.25;15.00
75960;PMS7003;64644;48.914;2.254;2022-12-10T08:17:27;18.25;15.75;10.75
75960;PMS7003;64644;48.914;2.254;2022-12-10T08:19:53;15.75;12.75;8.25
75960;PMS7003;64644;48.914;2.254;2022-12-10T08:22:19;27.25;22.50;13.50
75960;PMS7003;64644;48.914;2.254;2022-12-10T08:24:45;19.00;17.25;11.25
75960;PMS7003;64644;48.914;2.254;2022-12-10T08:27:11;24.50;19.50;13.00
75960;PMS7003;64644;48.914;2.254;2022-12-10T08:29:36;24.00;18.00;13.00
75960;PMS7003;64644;48.914;2.254;2022-12-10T08:32:02;20.75;18.25;12.25
75960;PMS7003;64644;48.914;2.254;2022-12-10T08:34:27;19.00;19.00;14.25
75960;PMS7003;64644;48.914;2.254;2022-12-10T08:36:52;21.75;21.50;12.50
75960;PMS7003;64644;48.914;2.254;2022-12-10T08:39:18;21.00;17.25;12.00
75960;PMS7003;64644;48.914;2.254;2022-12-10T08:41:44;13.50;13.00;10.00
75960;PMS7003;64644;48.914;2.254;2022-12-10T08:44:10;23.25;16.50;12.25
75960;PMS7003;64644;48.914;2.254;2022-12-10T08:46:36;22.75;18.75;12.00
75960;PMS7003;64644;48.914;2.254;2022-12-10T08:49:02;20.00;18.50;10.00
75960;PMS7003;64644;48.914;2.254;2022-12-10T08:51:28;26.25;20.50;12.00
75960;PMS7003;64644;48.914;2.254;2022-12-10T08:53:54;14.00;14.00;10.75
75960;PMS7003;64644;48.914;2.254;2022-12-10T08:56:20;17.00;14.25;10.25
75960;PMS7003;64644;48.914;2.254;2022-12-10T08:58:45;15.00;12.50;9.25
75960;PMS7003;64644;48.914;2.254;2022-12-10T09:01:12;17.75;16.25;11.25
75960;PMS7003;64644;48.914;2.254;2022-12-10T09:03:39;21.00;17.00;9.75
75960;PMS7003;64644;48.914;2.254;2022-12-10T09:06:06;19.50;17.25;12.25
75960;PMS7003;64644;48.914;2.254;2022-12-10T09:08:37;19.25;18.00;12.00
75960;PMS7003;64644;48.914;2.254;2022-12-10T09:11:10;21.00;16.50;13.00
75960;PMS7003;64644;48.914;2.254;2022-12-10T09:13:37;25.00;21.00;13.00
75960;PMS7003;64644;48.914;2.254;2022-12-10T09:16:03;22.00;15.75;11.50
75960;PMS7003;64644;48.914;2.254;2022-12-10T09:18:29;17.00;13.25;9.00
75960;PMS7003;64644;48.914;2.254;2022-12-10T09:20:55;21.75;19.00;14.00
75960;PMS7003;64644;48.914;2.254;2022-12-10T09:23:20;21.00;18.50;12.00
75960;PMS7003;64644;48.914;2.254;2022-12-10T09:25:45;27.00;20.00;14.00
75960;PMS7003;64644;48.914;2.254;2022-12-10T09:28:11;25.00;16.50;12.50
75960;PMS7003;64644;48.914;2.254;2022-12-10T09:30:36;25.25;19.00;12.00
75960;PMS7003;64644;48.914;2.254;2022-12-10T09:33:01;18.00;16.75;10.00
75960;PMS7003;64644;48.914;2.254;2022-12-10T09:35:27;20.00;19.00;13.00
75960;PMS7003;64644;48.914;2.254;2022-12-10T09:37:52;28.50;22.75;13.75
75960;PMS7003;64644;48.914;2.254;2022-12-10T09:40:18;30.75;23.00;13.75
75960;PMS7003;64644;48.914;2.254;2022-12-10T09:46:06;23.00;21.50;13.00
75960;PMS7003;64644;48.914;2.254;2022-12-10T09:51:10;27.50;18.50;12.00
75960;PMS7003;64644;48.914;2.254;2022-12-10T09:53:42;23.50;18.25;13.00
75960;PMS7003;64644;48.914;2.254;2022-12-10T09:56:21;23.25;18.75;15.25
75960;PMS7003;64644;48.914;2.254;2022-12-10T09:58:48;23.00;19.25;13.00
75960;PMS7003;64644;48.914;2.254;2022-12-10T10:01:14;26.00;20.75;12.50
75960;PMS7003;64644;48.914;2.254;2022-12-10T10:03:42;31.75;24.00;14.75
75960;PMS7003;64644;48.914;2.254;2022-12-10T10:06:11;24.75;23.25;13.50
75960;PMS7003;64644;48.914;2.254;2022-12-10T10:08:42;24.75;23.50;12.00
75960;PMS7003;64644;48.914;2.254;2022-12-10T10:11:12;24.00;23.25;14.25
75960;PMS7003;64644;48.914;2.254;2022-12-10T10:13:43;21.50;20.50;13.25
75960;PMS7003;64644;48.914;2.254;2022-12-10T10:16:20;22.75;22.00;14.25
75960;PMS7003;64644;48.914;2.254;2022-12-10T10:18:52;23.75;19.50;13.75
75960;PMS7003;64644;48.914;2.254;2022-12-10T10:21:27;29.25;22.50;13.00
75960;PMS7003;64644;48.914;2.254;2022-12-10T10:23:55;29.50;23.75;13.00
75960;PMS7003;64644;48.914;2.254;2022-12-10T10:26:23;22.75;17.75;11.25
75960;PMS7003;64644;48.914;2.254;2022-12-10T10:28:52;27.00;22.25;12.50
75960;PMS7003;64644;48.914;2.254;2022-12-10T10:31:24;26.00;21.75;14.25
75960;PMS7003;64644;48.914;2.254;2022-12-10T10:33:52;32.50;22.25;12.50
75960;PMS7003;64644;48.914;2.254;2022-12-10T10:36:38;27.00;26.25;15.25
75960;PMS7003;64644;48.914;2.254;2022-12-10T10:39:09;30.50;25.50;17.50
75960;PMS7003;64644;48.914;2.254;2022-12-10T10:41:56;25.00;24.00;14.00
75960;PMS7003;64644;48.914;2.254;2022-12-10T10:44:23;34.50;27.25;17.25
75960;PMS7003;64644;48.914;2.254;2022-12-10T10:47:00;35.00;24.50;16.00
75960;PMS7003;64644;48.914;2.254;2022-12-10T10:49:31;24.50;18.25;14.25
75960;PMS7003;64644;48.914;2.254;2022-12-10T10:52:06;33.00;26.00;14.25
75960;PMS7003;64644;48.914;2.254;2022-12-10T10:54:39;29.50;22.00;14.25
75960;PMS7003;64644;48.914;2.254;2022-12-10T10:57:20;21.75;19.75;13.00
75960;PMS7003;64644;48.914;2.254;2022-12-10T10:59:50;22.75;22.00;13.50
75960;PMS7003;64644;48.914;2.254;2022-12-10T11:04:55;25.75;22.25;15.00
75960;PMS7003;64644;48.914;2.254;2022-12-10T11:07:35;23.50;20.25;14.25
75960;PMS7003;64644;48.914;2.254;2022-12-10T11:10:04;23.50;23.25;12.75
75960;PMS7003;64644;48.914;2.254;2022-12-10T11:12:53;19.75;19.00;11.25
75960;PMS7003;64644;48.914;2.254;2022-12-10T11:15:44;20.00;16.50;11.00
75960;PMS7003;64644;48.914;2.254;2022-12-10T11:23:38;31.25;23.25;16.00
75960;PMS7003;64644;48.914;2.254;2022-12-10T11:37:04;22.75;20.00;13.00
75960;PMS7003;64644;48.914;2.254;2022-12-10T11:50:34;19.00;17.50;10.25
75960;PMS7003;64644;48.914;2.254;2022-12-10T11:56:30;24.25;21.25;13.25
75960;PMS7003;64644;48.914;2.254;2022-12-10T12:04:23;21.75;20.75;14.00
75960;PMS7003;64644;48.914;2.254;2022-12-10T12:10:06;20.00;20.00;13.75
75960;PMS7003;64644;48.914;2.254;2022-12-10T12:13:04;29.00;21.25;14.00
75960;PMS7003;64644;48.914;2.254;2022-12-10T12:15:47;20.25;19.25;13.75
75960;PMS7003;64644;48.914;2.254;2022-12-10T12:20:57;23.50;21.00;14.00
75960;PMS7003;64644;48.914;2.254;2022-12-10T12:23:31;26.00;24.25;16.00
75960;PMS7003;64644;48.914;2.254;2022-12-10T12:26:17;32.00;18.50;14.00
75960;PMS7003;64644;48.914;2.254;2022-12-10T12:29:30;21.00;19.25;15.00
75960;PMS7003;64644;48.914;2.254;2022-12-10T12:31:37;21.25;16.75;11.00
75960;PMS7003;64644;48.914;2.254;2022-12-10T12:34:27;25.00;23.25;16.00
75960;PMS7003;64644;48.914;2.254;2022-12-10T12:36:54;23.75;20.50;13.75
75960;PMS7003;64644;48.914;2.254;2022-12-10T12:39:34;26.00;23.00;14.25
75960;PMS7003;64644;48.914;2.254;2022-12-10T12:49:37;27.75;22.00;13.75
75960;PMS7003;64644;48.914;2.254;2022-12-10T12:54:46;23.25;21.50;13.00
75960;PMS7003;64644;48.914;2.254;2022-12-10T12:57:19;25.00;20.75;12.25
75960;PMS7003;64644;48.914;2.254;2022-12-10T13:00:03;22.00;19.00;13.25
75960;PMS7003;64644;48.914;2.254;2022-12-10T13:04:59;20.75;20.00;13.50
75960;PMS7003;64644;48.914;2.254;2022-12-10T13:10:42;20.50;18.25;13.75
75960;PMS7003;64644;48.914;2.254;2022-12-10T13:18:05;19.50;17.50;11.00
75960;PMS7003;64644;48.914;2.254;2022-12-10T13:23:47;18.75;18.75;12.00
75960;PMS7003;64644;48.914;2.254;2022-12-10T13:26:23;27.25;22.25;12.25
75960;PMS7003;64644;48.914;2.254;2022-12-10T13:28:50;26.00;23.25;16.75
75960;PMS7003;64644;48.914;2.254;2022-12-10T13:31:19;24.75;22.00;15.75
75960;PMS7003;64644;48.914;2.254;2022-12-10T13:44:49;24.00;20.50;16.50
75960;PMS7003;64644;48.914;2.254;2022-12-10T13:47:25;31.75;27.75;16.00
75960;PMS7003;64644;48.914;2.254;2022-12-10T14:01:25;22.50;18.75;14.00
75960;PMS7003;64644;48.914;2.254;2022-12-10T14:06:56;32.50;25.75;16.50
75960;PMS7003;64644;48.914;2.254;2022-12-10T14:09:23;22.75;19.25;14.25
75960;PMS7003;64644;48.914;2.254;2022-12-10T14:14:25;33.25;25.25;17.25
75960;PMS7003;64644;48.914;2.254;2022-12-10T14:17:20;26.50;23.50;15.00
75960;PMS7003;64644;48.914;2.254;2022-12-10T14:19:50;25.50;24.00;16.25
75960;PMS7003;64644;48.914;2.254;2022-12-10T14:22:30;24.75;22.75;14.50
75960;PMS7003;64644;48.914;2.254;2022-12-10T14:24:59;19.75;18.75;13.00
75960;PMS7003;64644;48.914;2.254;2022-12-10T14:27:28;25.25;23.25;15.25
75960;PMS7003;64644;48.914;2.254;2022-12-10T14:30:02;26.00;25.25;17.00
75960;PMS7003;64644;48.914;2.254;2022-12-10T14:32:31;24.50;19.75;13.25
75960;PMS7003;64644;48.914;2.254;2022-12-10T14:34:59;22.00;18.25;12.00
75960;PMS7003;64644;48.914;2.254;2022-12-10T14:37:26;26.75;24.00;13.00
75960;PMS7003;64644;48.914;2.254;2022-12-10T14:39:55;20.50;20.00;11.00
75960;PMS7003;64644;48.914;2.254;2022-12-10T14:42:21;19.75;18.00;13.25
75960;PMS7003;64644;48.914;2.254;2022-12-10T14:44:49;25.75;22.50;14.00
75960;PMS7003;64644;48.914;2.254;2022-12-10T14:47:21;22.75;16.75;11.50
75960;PMS7003;64644;48.914;2.254;2022-12-10T14:49:48;32.50;22.25;14.00
75960;PMS7003;64644;48.914;2.254;2022-12-10T14:52:19;23.25;21.00;13.75
75960;PMS7003;64644;48.914;2.254;2022-12-10T14:54:49;22.50;19.00;13.75
75960;PMS7003;64644;48.914;2.254;2022-12-10T14:57:17;22.25;19.75;14.50
75960;PMS7003;64644;48.914;2.254;2022-12-10T15:02:37;27.00;22.75;15.00
75960;PMS7003;64644;48.914;2.254;2022-12-10T15:05:17;25.00;22.25;14.50
75960;PMS7003;64644;48.914;2.254;2022-12-10T15:08:04;29.75;23.25;13.00
75960;PMS7003;64644;48.914;2.254;2022-12-10T15:13:06;31.50;25.25;15.25
75960;PMS7003;64644;48.914;2.254;2022-12-10T15:15:48;24.00;22.75;14.25
75960;PMS7003;64644;48.914;2.254;2022-12-10T15:18:16;41.00;33.00;24.75
75960;PMS7003;64644;48.914;2.254;2022-12-10T15:20:51;29.75;28.25;19.50
75960;PMS7003;64644;48.914;2.254;2022-12-10T15:23:30;28.00;24.25;17.25
75960;PMS7003;64644;48.914;2.254;2022-12-10T15:25:58;26.25;22.50;18.75
75960;PMS7003;64644;48.914;2.254;2022-12-10T15:28:32;30.50;26.75;18.25
75960;PMS7003;64644;48.914;2.254;2022-12-10T15:31:12;40.00;36.00;23.25
75960;PMS7003;64644;48.914;2.254;2022-12-10T15:33:42;27.00;27.00;20.00
75960;PMS7003;64644;48.914;2.254;2022-12-10T15:36:18;39.75;37.00;24.25
75960;PMS7003;64644;48.914;2.254;2022-12-10T15:41:44;36.50;31.50;21.50
75960;PMS7003;64644;48.914;2.254;2022-12-10T15:46:49;39.00;30.75;19.75
75960;PMS7003;64644;48.914;2.254;2022-12-10T15:49:16;36.50;30.00;18.25
75960;PMS7003;64644;48.914;2.254;2022-12-10T15:51:42;30.50;29.75;20.50
75960;PMS7003;64644;48.914;2.254;2022-12-10T15:59:47;37.25;34.25;22.25
75960;PMS7003;64644;48.914;2.254;2022-12-10T16:02:27;32.75;30.50;22.50
75960;PMS7003;64644;48.914;2.254;2022-12-10T16:05:16;32.25;27.75;18.00
75960;PMS7003;64644;48.914;2.254;2022-12-10T16:07:47;31.25;28.50;20.75
75960;PMS7003;64644;48.914;2.254;2022-12-10T16:10:15;34.75;30.75;21.50
75960;PMS7003;64644;48.914;2.254;2022-12-10T16:12:43;28.75;26.75;15.50
75960;PMS7003;64644;48.914;2.254;2022-12-10T16:15:15;29.25;25.75;16.75
75960;PMS7003;64644;48.914;2.254;2022-12-10T16:17:43;30.25;26.25;17.50
75960;PMS7003;64644;48.914;2.254;2022-12-10T16:22:46;25.50;25.00;18.00
75960;PMS7003;64644;48.914;2.254;2022-12-10T16:25:12;33.25;28.00;16.50
75960;PMS7003;64644;48.914;2.254;2022-12-10T16:27:39;33.75;28.75;15.50